Time;durP1;ratioP1;P1;durP2;ratioP2;P2;SDS_P1;SDS_P2;PMS_P1;PMS_P2;Temp;Humidity;BMP_temperature;BMP_pressure;BME280_temperature;BME280_humidity;BME280_pressure;Samples;Min_cycle;Max_cycle;Signal;HPM_P1;HPM_P2
2023/05/15 00:03:07;;;;;;;;;;;14.50;99.90;;;;;;8384591;28;20367;-74
2023/05/15 00:07:09;;;;;;;;;;;14.40;99.90;;;;;;8370977;28;19926;-74
2023/05/15 00:11:11;;;;;;;;;;;14.30;99.90;;;;;;8382842;28;20380;-74
2023/05/15 00:15:13;;;;;;;;;;;14.30;99.90;;;;;;8383211;28;20007;-74
2023/05/15 00:19:15;;;;;;;;;;;14.30;99.90;;;;;;8402654;28;20407;-74
2023/05/15 00:23:17;;;;;;;;;;;14.20;99.90;;;;;;8375847;28;19925;-74
2023/05/15 00:27:18;;;;;;;;;;;14.20;99.90;;;;;;8394675;28;19956;-74
2023/05/15 00:31:20;;;;;;;;;;;14.20;99.90;;;;;;8391902;28;20390;-74
2023/05/15 00:35:22;;;;;;;;;;;14.20;99.90;;;;;;8383206;28;19924;-74
2023/05/15 00:39:23;;;;;;;;;;;14.20;99.90;;;;;;8393565;28;19924;-73
2023/05/15 00:43:25;;;;;;;;;;;14.20;99.90;;;;;;8396801;28;20296;-74
2023/05/15 00:47:27;;;;;;;;;;;14.20;99.90;;;;;;8375853;28;19935;-74
2023/05/15 00:51:29;;;;;;;;;;;14.10;99.90;;;;;;8388003;28;19928;-74
2023/05/15 00:55:32;;;;;;;;;;;14.10;99.90;;;;;;8384446;28;19978;-74
2023/05/15 00:59:33;;;;;;;;;;;14.10;99.90;;;;;;8389594;28;19929;-74
2023/05/15 01:03:36;;;;;;;;;;;14.00;99.90;;;;;;8383824;28;20395;-74
2023/05/15 01:07:42;;;;;;;;;;;14.00;99.90;;;;;;8386697;28;19924;-74
2023/05/15 01:11:45;;;;;;;;;;;14.00;99.90;;;;;;8385543;28;19933;-74
2023/05/15 01:15:47;;;;;;;;;;;14.00;99.90;;;;;;8383969;28;20261;-73
2023/05/15 01:19:49;;;;;;;;;;;13.90;99.90;;;;;;8392466;28;19934;-74
2023/05/15 01:24:05;;;;;;;;;;;13.90;99.90;;;;;;8382323;28;19937;-75
2023/05/15 01:28:12;;;;;;;;;;;13.70;99.90;;;;;;8384182;28;19938;-76
2023/05/15 01:32:19;;;;;;;;;;;13.70;99.90;;;;;;8385440;28;19932;-76
2023/05/15 01:36:25;;;;;;;;;;;13.60;99.90;;;;;;8389091;28;19979;-76
2023/05/15 01:40:27;;;;;;;;;;;13.60;99.90;;;;;;8376345;28;20075;-76
2023/05/15 01:44:30;;;;;;;;;;;13.60;99.90;;;;;;8371600;28;19928;-76
2023/05/15 01:48:32;;;;;;;;;;;13.50;99.90;;;;;;8372035;28;19925;-76
2023/05/15 01:52:35;;;;;;;;;;;13.40;99.90;;;;;;8371107;28;19929;-76
2023/05/15 01:56:39;;;;;;;;;;;13.40;99.90;;;;;;8382183;28;20447;-75
2023/05/15 02:00:41;;;;;;;;;;;13.40;99.90;;;;;;8385527;28;20368;-76
2023/05/15 02:04:43;;;;;;;;;;;13.30;99.90;;;;;;8383107;28;20376;-76
2023/05/15 02:08:45;;;;;;;;;;;13.20;99.90;;;;;;8381821;28;19928;-76
2023/05/15 02:12:48;;;;;;;;;;;13.10;99.90;;;;;;8394734;28;19946;-76
2023/05/15 02:16:50;;;;;;;;;;;13.00;99.90;;;;;;8385575;28;19939;-76
2023/05/15 02:20:52;;;;;;;;;;;13.00;99.90;;;;;;8386824;28;20102;-76
2023/05/15 02:24:53;;;;;;;;;;;13.00;99.90;;;;;;8389078;28;19940;-76
2023/05/15 02:29:14;;;;;;;;;;;13.00;99.90;;;;;;8389327;28;19932;-76
2023/05/15 02:33:22;;;;;;;;;;;13.00;99.90;;;;;;8387063;28;19979;-76
2023/05/15 02:37:26;;;;;;;;;;;12.90;99.90;;;;;;8385786;28;19932;-76
2023/05/15 02:41:30;;;;;;;;;;;12.90;99.90;;;;;;8388271;28;20368;-76
2023/05/15 02:45:33;;;;;;;;;;;12.90;99.90;;;;;;8392947;28;20402;-76
2023/05/15 02:49:34;;;;;;;;;;;12.80;99.90;;;;;;8385150;28;19931;-76
2023/05/15 02:53:40;;;;;;;;;;;12.70;99.90;;;;;;8391378;28;19924;-76
2023/05/15 02:57:41;;;;;;;;;;;12.70;99.90;;;;;;8382184;28;20007;-76
2023/05/15 03:01:43;;;;;;;;;;;12.70;99.90;;;;;;8401168;28;19925;-76
2023/05/15 03:05:45;;;;;;;;;;;12.70;99.90;;;;;;8380037;28;19974;-77
2023/05/15 03:09:47;;;;;;;;;;;12.70;99.90;;;;;;8376697;28;19928;-77
2023/05/15 03:13:49;;;;;;;;;;;12.60;99.90;;;;;;8389641;28;20019;-76
2023/05/15 03:17:50;;;;;;;;;;;12.60;99.90;;;;;;8387378;28;19967;-76
2023/05/15 03:21:52;;;;;;;;;;;12.50;99.90;;;;;;8391970;28;19935;-76
2023/05/15 03:25:54;;;;;;;;;;;12.50;99.90;;;;;;8373148;28;19925;-76
2023/05/15 03:29:55;;;;;;;;;;;12.50;99.90;;;;;;8388556;28;20386;-76
2023/05/15 03:33:57;;;;;;;;;;;12.50;99.90;;;;;;8383838;28;20387;-76
2023/05/15 03:37:59;;;;;;;;;;;12.50;99.90;;;;;;8384357;28;19952;-76
2023/05/15 03:42:00;;;;;;;;;;;12.40;99.90;;;;;;8389379;28;20438;-76
2023/05/15 03:46:02;;;;;;;;;;;12.40;99.90;;;;;;8386918;28;20392;-76
2023/05/15 03:50:04;;;;;;;;;;;12.40;99.90;;;;;;8371876;28;19932;-76
2023/05/15 03:54:05;;;;;;;;;;;12.40;99.90;;;;;;8394958;28;19979;-76
2023/05/15 03:58:07;;;;;;;;;;;12.40;99.90;;;;;;8392799;28;20019;-76
2023/05/15 04:02:09;;;;;;;;;;;12.30;99.90;;;;;;8398685;28;20318;-76
2023/05/15 04:06:10;;;;;;;;;;;12.20;99.90;;;;;;8395556;28;19924;-76
2023/05/15 04:10:12;;;;;;;;;;;12.10;99.90;;;;;;8368070;28;19928;-76
2023/05/15 04:14:14;;;;;;;;;;;12.00;99.90;;;;;;8390165;28;19932;-77
2023/05/15 04:18:15;;;;;;;;;;;11.90;99.90;;;;;;8396548;28;19972;-76
2023/05/15 04:22:17;;;;;;;;;;;11.90;99.90;;;;;;8398345;28;19924;-76
2023/05/15 04:26:18;;;;;;;;;;;11.90;99.90;;;;;;8391345;28;19975;-75
2023/05/15 04:30:20;;;;;;;;;;;11.80;99.90;;;;;;8389058;28;19925;-76
2023/05/15 04:34:22;;;;;;;;;;;11.90;99.90;;;;;;8376340;28;19939;-76
2023/05/15 04:38:23;;;;;;;;;;;11.90;99.90;;;;;;8379400;28;19924;-77
2023/05/15 04:42:25;;;;;;;;;;;12.00;99.90;;;;;;8370767;28;19963;-76
2023/05/15 04:46:28;;;;;;;;;;;11.90;99.90;;;;;;8384591;28;19955;-77
2023/05/15 04:50:29;;;;;;;;;;;11.90;99.90;;;;;;8383671;28;19929;-77
2023/05/15 04:54:31;;;;;;;;;;;11.90;99.90;;;;;;8368470;28;19975;-77
2023/05/15 04:58:33;;;;;;;;;;;11.90;99.90;;;;;;8387531;28;20299;-77
2023/05/15 05:02:35;;;;;;;;;;;11.90;99.90;;;;;;8387532;28;20329;-76
2023/05/15 05:06:36;;;;;;;;;;;12.00;99.90;;;;;;8382044;28;20288;-77
2023/05/15 05:10:38;;;;;;;;;;;12.10;99.90;;;;;;8397164;28;19928;-77
2023/05/15 05:14:40;;;;;;;;;;;12.10;99.90;;;;;;8388948;28;20368;-77
2023/05/15 05:18:45;;;;;;;;;;;12.10;99.90;;;;;;8400759;28;19932;-77
2023/05/15 05:22:47;;;;;;;;;;;12.10;99.90;;;;;;8374851;28;19932;-77
2023/05/15 05:26:49;;;;;;;;;;;12.20;99.90;;;;;;8376759;28;20023;-77
2023/05/15 05:30:50;;;;;;;;;;;12.20;99.90;;;;;;8376718;28;19924;-77
2023/05/15 05:34:52;;;;;;;;;;;12.30;99.90;;;;;;8383477;28;19928;-77
2023/05/15 05:38:54;;;;;;;;;;;12.30;99.90;;;;;;8386293;28;19928;-77
2023/05/15 05:43:01;;;;;;;;;;;12.30;99.90;;;;;;8386626;28;20379;-77
2023/05/15 05:47:03;;;;;;;;;;;12.30;99.90;;;;;;8381310;28;19924;-77
2023/05/15 05:51:05;;;;;;;;;;;12.30;99.90;;;;;;8385173;28;19982;-77
2023/05/15 05:55:07;;;;;;;;;;;12.40;99.90;;;;;;8384453;28;19942;-77
2023/05/15 05:59:09;;;;;;;;;;;12.40;99.90;;;;;;8387640;28;19971;-77
2023/05/15 06:03:10;;;;;;;;;;;12.60;99.90;;;;;;8380349;28;19924;-76
2023/05/15 06:07:12;;;;;;;;;;;12.60;99.90;;;;;;8362573;28;19978;-76
2023/05/15 06:11:14;;;;;;;;;;;12.70;99.90;;;;;;8382244;28;19924;-77
2023/05/15 06:15:15;;;;;;;;;;;12.70;99.90;;;;;;8363940;28;19964;-74
2023/05/15 06:19:17;;;;;;;;;;;12.70;99.90;;;;;;8361549;28;20331;-74
2023/05/15 06:23:19;;;;;;;;;;;12.80;99.90;;;;;;8385283;28;20360;-74
2023/05/15 06:27:23;;;;;;;;;;;12.90;99.90;;;;;;8390140;28;19925;-74
2023/05/15 06:31:24;;;;;;;;;;;13.10;99.90;;;;;;8389020;28;19925;-74
2023/05/15 06:35:26;;;;;;;;;;;13.20;99.90;;;;;;8368980;28;19924;-74
2023/05/15 06:39:28;;;;;;;;;;;13.40;99.90;;;;;;8399806;28;19935;-74
2023/05/15 06:43:30;;;;;;;;;;;13.50;99.90;;;;;;8390238;28;19929;-74
2023/05/15 06:47:31;;;;;;;;;;;13.60;99.90;;;;;;8388599;28;19982;-74
2023/05/15 06:51:33;;;;;;;;;;;13.70;99.90;;;;;;8393019;28;19931;-75
2023/05/15 06:55:36;;;;;;;;;;;13.80;99.90;;;;;;8365119;28;20375;-74
2023/05/15 06:59:38;;;;;;;;;;;13.80;99.90;;;;;;8374229;28;19925;-75
2023/05/15 07:03:41;;;;;;;;;;;13.60;99.90;;;;;;8394835;28;20368;-75
2023/05/15 07:07:43;;;;;;;;;;;13.60;99.90;;;;;;8387461;28;19933;-74
2023/05/15 07:11:45;;;;;;;;;;;13.60;99.90;;;;;;8374729;28;19975;-74
2023/05/15 07:15:46;;;;;;;;;;;13.70;99.90;;;;;;8371949;28;19924;-74
2023/05/15 07:19:48;;;;;;;;;;;13.90;99.90;;;;;;8391438;28;20042;-74
2023/05/15 07:24:15;;;;;;;;;;;14.10;99.90;;;;;;8371498;28;19925;-74
2023/05/15 07:28:16;;;;;;;;;;;14.20;99.90;;;;;;8384760;28;19928;-74
2023/05/15 07:32:18;;;;;;;;;;;14.30;99.90;;;;;;8383083;28;19934;-75
2023/05/15 07:36:20;;;;;;;;;;;14.30;99.90;;;;;;8384354;28;20010;-74
2023/05/15 07:40:22;;;;;;;;;;;14.40;99.90;;;;;;8386333;28;19929;-74
2023/05/15 07:44:23;;;;;;;;;;;14.40;99.90;;;;;;8379666;28;19970;-74
2023/05/15 07:48:25;;;;;;;;;;;14.30;99.90;;;;;;8385374;28;19932;-75
2023/05/15 07:52:27;;;;;;;;;;;14.40;99.90;;;;;;8385672;28;20432;-74
2023/05/15 07:56:28;;;;;;;;;;;14.40;99.90;;;;;;8369830;28;20321;-75
2023/05/15 08:00:30;;;;;;;;;;;14.50;99.90;;;;;;8386065;28;19924;-74
2023/05/15 08:04:32;;;;;;;;;;;14.60;99.90;;;;;;8385398;28;19939;-74
2023/05/15 08:08:33;;;;;;;;;;;14.70;99.90;;;;;;8378258;28;19933;-75
2023/05/15 08:12:35;;;;;;;;;;;14.80;99.90;;;;;;8386198;28;20479;-75
2023/05/15 08:16:37;;;;;;;;;;;14.90;99.90;;;;;;8394837;28;19939;-75
2023/05/15 08:20:38;;;;;;;;;;;14.90;99.90;;;;;;8382627;28;19932;-75
2023/05/15 08:24:40;;;;;;;;;;;15.00;99.90;;;;;;8385233;28;19938;-74
2023/05/15 08:28:42;;;;;;;;;;;15.10;99.90;;;;;;8385911;28;20023;-75
2023/05/15 08:32:47;;;;;;;;;;;15.10;99.90;;;;;;8371905;28;19940;-75
2023/05/15 08:36:49;;;;;;;;;;;15.20;99.90;;;;;;8368907;28;19928;-76
2023/05/15 08:40:52;;;;;;;;;;;15.20;99.90;;;;;;8390575;28;19968;-75
2023/05/15 08:44:54;;;;;;;;;;;15.20;99.90;;;;;;8394691;28;19939;-75
2023/05/15 08:48:56;;;;;;;;;;;15.20;99.90;;;;;;8373473;28;20334;-75
2023/05/15 08:53:00;;;;;;;;;;;15.20;99.90;;;;;;8392936;28;19933;-74
2023/05/15 08:57:02;;;;;;;;;;;15.20;99.90;;;;;;8387922;28;19940;-75
2023/05/15 09:01:04;;;;;;;;;;;15.20;99.90;;;;;;8393834;28;19925;-74
2023/05/15 09:05:07;;;;;;;;;;;15.20;99.90;;;;;;8391573;28;19931;-75
2023/05/15 09:09:12;;;;;;;;;;;15.20;99.90;;;;;;8370352;28;19974;-75
2023/05/15 09:13:13;;;;;;;;;;;15.20;99.90;;;;;;8352677;28;19925;-75
2023/05/15 09:17:15;;;;;;;;;;;15.20;99.90;;;;;;8365825;28;20016;-75
2023/05/15 09:21:20;;;;;;;;;;;15.20;99.90;;;;;;8372490;28;19931;-75
2023/05/15 09:25:37;;;;;;;;;;;15.20;99.90;;;;;;8379931;28;20288;-75
2023/05/15 09:29:39;;;;;;;;;;;15.30;99.90;;;;;;8370096;28;19933;-75
2023/05/15 09:33:43;;;;;;;;;;;15.40;99.90;;;;;;8372732;28;20489;-74
2023/05/15 09:37:45;;;;;;;;;;;15.40;99.90;;;;;;8369149;28;20399;-74
2023/05/15 09:41:47;;;;;;;;;;;15.40;99.90;;;;;;8370987;28;19928;-74
2023/05/15 09:45:48;;;;;;;;;;;15.40;99.90;;;;;;8365603;28;19975;-74
2023/05/15 09:49:51;;;;;;;;;;;15.30;99.90;;;;;;8362418;28;19932;-75
2023/05/15 09:53:53;;;;;;;;;;;15.20;99.90;;;;;;8367878;28;20296;-74
2023/05/15 09:58:07;;;;;;;;;;;15.10;99.90;;;;;;8365948;28;20356;-74
2023/05/15 10:02:12;;;;;;;;;;;15.00;99.90;;;;;;8364370;28;19935;-74
2023/05/15 10:06:16;;;;;;;;;;;14.90;99.90;;;;;;8382631;28;19936;-75
2023/05/15 10:10:18;;;;;;;;;;;14.90;99.90;;;;;;8366813;28;20295;-74
2023/05/15 10:14:21;;;;;;;;;;;14.80;99.90;;;;;;8357015;28;19935;-75
2023/05/15 10:18:25;;;;;;;;;;;14.70;99.90;;;;;;8348983;28;19972;-75
2023/05/15 10:22:29;;;;;;;;;;;14.60;99.90;;;;;;8348600;28;19936;-75
2023/05/15 10:26:38;;;;;;;;;;;14.60;99.90;;;;;;8367316;28;19978;-75
2023/05/15 10:30:41;;;;;;;;;;;14.60;99.90;;;;;;8366208;28;19950;-75
2023/05/15 10:34:42;;;;;;;;;;;14.60;99.90;;;;;;8364688;28;20306;-75
2023/05/15 10:38:45;;;;;;;;;;;14.50;99.90;;;;;;8368601;28;19974;-75
2023/05/15 10:42:46;;;;;;;;;;;14.50;99.90;;;;;;8365613;28;19967;-74
2023/05/15 10:46:48;;;;;;;;;;;14.50;99.90;;;;;;8366532;28;19936;-75
2023/05/15 10:50:51;;;;;;;;;;;14.50;99.90;;;;;;8357941;28;19928;-75
2023/05/15 10:54:53;;;;;;;;;;;14.40;99.90;;;;;;8355347;28;19952;-75
2023/05/15 10:58:54;;;;;;;;;;;14.40;99.90;;;;;;8367231;28;20373;-75
2023/05/15 11:02:57;;;;;;;;;;;14.40;99.90;;;;;;8366308;28;19925;-75
2023/05/15 11:07:10;;;;;;;;;;;14.30;99.90;;;;;;8366860;28;20288;-75
2023/05/15 11:11:30;;;;;;;;;;;14.40;99.90;;;;;;8368475;28;19984;-75
2023/05/15 11:15:45;;;;;;;;;;;14.30;99.90;;;;;;8364423;28;19932;-76
2023/05/15 11:19:50;;;;;;;;;;;14.30;99.90;;;;;;8353596;28;20279;-75
2023/05/15 11:24:02;;;;;;;;;;;14.30;99.90;;;;;;8364007;28;19929;-75
2023/05/15 11:28:03;;;;;;;;;;;14.30;99.90;;;;;;8369063;28;19928;-75
2023/05/15 11:32:25;;;;;;;;;;;14.30;99.90;;;;;;8344409;28;19939;-75
2023/05/15 11:36:27;;;;;;;;;;;14.40;99.90;;;;;;8359718;28;19932;-75
2023/05/15 11:40:29;;;;;;;;;;;14.40;99.90;;;;;;8364372;28;19925;-75
2023/05/15 11:44:31;;;;;;;;;;;14.50;99.90;;;;;;8361059;28;20031;-76
2023/05/15 11:48:40;;;;;;;;;;;14.60;99.90;;;;;;8365017;28;20381;-75
2023/05/15 11:52:41;;;;;;;;;;;14.70;99.90;;;;;;8359301;28;20442;-75
2023/05/15 11:56:43;;;;;;;;;;;14.80;99.90;;;;;;8368074;28;19926;-75
2023/05/15 12:00:46;;;;;;;;;;;15.00;99.90;;;;;;8359259;28;19979;-75
2023/05/15 12:04:48;;;;;;;;;;;15.10;99.90;;;;;;8357905;28;19928;-75
2023/05/15 12:08:51;;;;;;;;;;;15.30;99.90;;;;;;8366811;28;19932;-75
2023/05/15 12:12:53;;;;;;;;;;;15.40;99.90;;;;;;8366622;28;20292;-75
2023/05/15 12:17:01;;;;;;;;;;;15.50;99.90;;;;;;8364182;28;19932;-75
2023/05/15 12:21:04;;;;;;;;;;;15.60;99.90;;;;;;8372044;28;19935;-75
2023/05/15 12:25:06;;;;;;;;;;;15.60;99.90;;;;;;8360195;28;24227;-75
2023/05/15 12:29:08;;;;;;;;;;;15.60;99.90;;;;;;8368058;28;20423;-76
2023/05/15 12:33:10;;;;;;;;;;;15.70;99.90;;;;;;8358019;28;20384;-75
2023/05/15 12:37:12;;;;;;;;;;;15.80;99.90;;;;;;8372555;28;19952;-75
2023/05/15 12:41:14;;;;;;;;;;;15.90;99.90;;;;;;8366763;28;20035;-75
2023/05/15 12:45:17;;;;;;;;;;;16.00;99.90;;;;;;8370776;28;19929;-75
2023/05/15 12:49:22;;;;;;;;;;;16.10;99.90;;;;;;8370754;28;19925;-75
2023/05/15 12:53:23;;;;;;;;;;;16.20;99.90;;;;;;8376166;28;19925;-75
2023/05/15 12:57:25;;;;;;;;;;;16.20;99.90;;;;;;8360362;28;19933;-75
2023/05/15 13:01:27;;;;;;;;;;;16.30;99.90;;;;;;8382426;28;19935;-75
2023/05/15 13:05:33;;;;;;;;;;;16.40;99.90;;;;;;8355904;28;20876;-75
2023/05/15 13:09:35;;;;;;;;;;;16.30;99.90;;;;;;8370921;28;19925;-75
2023/05/15 13:13:44;;;;;;;;;;;16.10;99.90;;;;;;8368325;28;20456;-75
2023/05/15 13:17:45;;;;;;;;;;;15.80;99.90;;;;;;8364068;28;19925;-75
2023/05/15 13:21:49;;;;;;;;;;;15.70;99.90;;;;;;8376780;28;19925;-75
2023/05/15 13:25:51;;;;;;;;;;;15.50;99.90;;;;;;8349538;28;20534;-75
2023/05/15 13:29:52;;;;;;;;;;;15.50;99.90;;;;;;8365803;28;20388;-75
2023/05/15 13:33:54;;;;;;;;;;;15.50;99.90;;;;;;8364181;28;19931;-75
2023/05/15 13:37:56;;;;;;;;;;;15.50;99.90;;;;;;8367723;28;19936;-75
2023/05/15 13:41:57;;;;;;;;;;;15.50;99.90;;;;;;8363909;28;19924;-75
2023/05/15 13:45:59;;;;;;;;;;;15.50;99.90;;;;;;8357337;28;19925;-75
2023/05/15 13:50:01;;;;;;;;;;;15.50;99.90;;;;;;8367146;28;19932;-75
2023/05/15 13:54:03;;;;;;;;;;;15.50;99.90;;;;;;8362924;28;19952;-76
2023/05/15 13:58:04;;;;;;;;;;;15.60;99.90;;;;;;8362303;28;20407;-75
2023/05/15 14:02:06;;;;;;;;;;;15.50;99.90;;;;;;8362835;28;19924;-74
2023/05/15 14:06:08;;;;;;;;;;;15.50;99.90;;;;;;8378357;28;19925;-75
2023/05/15 14:10:10;;;;;;;;;;;15.50;99.90;;;;;;8348946;28;19984;-75
2023/05/15 14:14:12;;;;;;;;;;;15.50;99.90;;;;;;8360984;28;19929;-75
2023/05/15 14:18:14;;;;;;;;;;;15.40;99.90;;;;;;8368941;28;19975;-75
2023/05/15 14:22:15;;;;;;;;;;;15.40;99.90;;;;;;8366518;28;19978;-75
2023/05/15 14:26:17;;;;;;;;;;;15.40;99.90;;;;;;8365923;28;19932;-75
2023/05/15 14:30:20;;;;;;;;;;;15.40;99.90;;;;;;8364924;28;19939;-75
2023/05/15 14:34:22;;;;;;;;;;;15.50;99.90;;;;;;8359651;28;19932;-75
2023/05/15 14:38:24;;;;;;;;;;;15.50;99.90;;;;;;8347340;28;19974;-74
2023/05/15 14:42:26;;;;;;;;;;;15.50;99.90;;;;;;8379488;28;19932;-75
2023/05/15 14:46:27;;;;;;;;;;;15.30;99.90;;;;;;8364694;28;20431;-75
2023/05/15 14:50:29;;;;;;;;;;;15.20;99.90;;;;;;8369210;28;20441;-75
2023/05/15 14:54:31;;;;;;;;;;;15.00;99.90;;;;;;8359548;28;20414;-75
2023/05/15 14:58:32;;;;;;;;;;;14.80;99.90;;;;;;8369856;28;19929;-75
2023/05/15 15:02:34;;;;;;;;;;;14.70;99.90;;;;;;8366800;28;19924;-75
2023/05/15 15:06:36;;;;;;;;;;;14.60;99.90;;;;;;8363298;28;19925;-75
2023/05/15 15:10:38;;;;;;;;;;;14.60;99.90;;;;;;8346714;28;19929;-75
2023/05/15 15:14:40;;;;;;;;;;;14.60;99.90;;;;;;8348261;28;19929;-75
2023/05/15 15:18:42;;;;;;;;;;;14.60;99.90;;;;;;8350003;28;19977;-75
2023/05/15 15:22:44;;;;;;;;;;;14.50;99.90;;;;;;8368063;28;19938;-75
2023/05/15 15:26:45;;;;;;;;;;;14.50;99.90;;;;;;8366556;28;20379;-75
2023/05/15 15:30:47;;;;;;;;;;;14.50;99.90;;;;;;8368163;28;19940;-75
2023/05/15 15:34:48;;;;;;;;;;;14.50;99.90;;;;;;8364615;28;19959;-75
2023/05/15 15:38:50;;;;;;;;;;;14.50;99.90;;;;;;8361541;28;20056;-76
2023/05/15 15:42:53;;;;;;;;;;;14.50;99.90;;;;;;8366652;28;19935;-75
2023/05/15 15:46:54;;;;;;;;;;;14.50;99.90;;;;;;8363176;28;19940;-75
2023/05/15 15:50:56;;;;;;;;;;;14.50;99.90;;;;;;8370939;28;20024;-75
2023/05/15 15:54:57;;;;;;;;;;;14.40;99.90;;;;;;8354841;28;20579;-75
2023/05/15 15:58:59;;;;;;;;;;;14.40;99.90;;;;;;8375876;28;19928;-76
2023/05/15 16:03:01;;;;;;;;;;;14.40;99.90;;;;;;8372423;28;20388;-75
2023/05/15 16:07:03;;;;;;;;;;;14.30;99.90;;;;;;8383708;28;19932;-75
2023/05/15 16:11:05;;;;;;;;;;;14.30;99.90;;;;;;8354072;28;19928;-76
2023/05/15 16:15:08;;;;;;;;;;;14.30;99.90;;;;;;8367722;28;20467;-75
2023/05/15 16:19:22;;;;;;;;;;;14.30;99.90;;;;;;8373848;28;19973;-75
2023/05/15 16:23:24;;;;;;;;;;;14.30;99.90;;;;;;8362010;28;19960;-75
2023/05/15 16:27:26;;;;;;;;;;;14.20;99.90;;;;;;8371477;28;19924;-75
2023/05/15 16:31:27;;;;;;;;;;;14.20;99.90;;;;;;8369909;28;19925;-75
2023/05/15 16:35:29;;;;;;;;;;;14.20;99.90;;;;;;8368567;28;19934;-76
2023/05/15 16:39:36;;;;;;;;;;;14.10;99.90;;;;;;8355107;28;20652;-75
2023/05/15 16:43:38;;;;;;;;;;;14.10;99.90;;;;;;8367346;28;20383;-75
2023/05/15 16:47:40;;;;;;;;;;;14.10;99.90;;;;;;8361648;28;20036;-75
2023/05/15 16:51:41;;;;;;;;;;;14.10;99.90;;;;;;8367748;28;19945;-75
2023/05/15 16:55:44;;;;;;;;;;;14.10;99.90;;;;;;8366854;28;20295;-75
2023/05/15 16:59:46;;;;;;;;;;;14.10;99.90;;;;;;8369371;28;19948;-75
2023/05/15 17:03:48;;;;;;;;;;;14.20;99.90;;;;;;8368002;28;20054;-76
2023/05/15 17:07:50;;;;;;;;;;;14.20;99.90;;;;;;8379157;28;19939;-75
2023/05/15 17:11:51;;;;;;;;;;;14.20;99.90;;;;;;8366170;28;19932;-76
2023/05/15 17:15:53;;;;;;;;;;;14.20;99.90;;;;;;8356460;28;20278;-76
2023/05/15 17:19:55;;;;;;;;;;;14.20;99.90;;;;;;8366795;28;20053;-74
2023/05/15 17:23:57;;;;;;;;;;;14.20;99.90;;;;;;8364054;28;19928;-75
2023/05/15 17:27:59;;;;;;;;;;;14.10;99.90;;;;;;8361812;28;20343;-75
2023/05/15 17:32:00;;;;;;;;;;;14.10;99.90;;;;;;8364521;28;20407;-75
2023/05/15 17:36:02;;;;;;;;;;;14.10;99.90;;;;;;8349952;28;19932;-75
2023/05/15 17:40:04;;;;;;;;;;;14.10;99.90;;;;;;8343961;28;19932;-74
2023/05/15 17:44:06;;;;;;;;;;;14.10;99.90;;;;;;8363992;28;20311;-75
2023/05/15 17:48:07;;;;;;;;;;;13.90;99.90;;;;;;8384785;28;19929;-75
2023/05/15 17:52:09;;;;;;;;;;;13.80;99.90;;;;;;8363972;28;20063;-75
2023/05/15 17:56:11;;;;;;;;;;;13.80;99.90;;;;;;8360754;28;20372;-74
2023/05/15 18:00:13;;;;;;;;;;;13.70;99.90;;;;;;8344668;28;19933;-74
2023/05/15 18:04:15;;;;;;;;;;;13.60;99.90;;;;;;8367818;28;19964;-74
2023/05/15 18:08:16;;;;;;;;;;;13.50;99.90;;;;;;8347870;28;19925;-75
2023/05/15 18:12:18;;;;;;;;;;;13.50;99.90;;;;;;8365321;28;19924;-74
2023/05/15 18:16:20;;;;;;;;;;;13.60;99.90;;;;;;8360874;28;19932;-74
2023/05/15 18:20:21;;;;;;;;;;;13.50;99.90;;;;;;8362119;28;20027;-75
2023/05/15 18:24:23;;;;;;;;;;;13.50;99.90;;;;;;8366475;28;19925;-74
2023/05/15 18:28:25;;;;;;;;;;;13.50;99.90;;;;;;8366617;28;20035;-74
2023/05/15 18:32:26;;;;;;;;;;;13.40;99.90;;;;;;8363198;28;19932;-74
2023/05/15 18:36:28;;;;;;;;;;;13.30;99.90;;;;;;8365100;28;19960;-73
2023/05/15 18:40:30;;;;;;;;;;;13.20;99.90;;;;;;8349072;28;19924;-74
2023/05/15 18:44:33;;;;;;;;;;;13.10;99.90;;;;;;8360457;28;19939;-74
2023/05/15 18:48:35;;;;;;;;;;;13.10;99.90;;;;;;8364251;28;20395;-74
2023/05/15 18:52:36;;;;;;;;;;;13.10;99.90;;;;;;8358925;28;19929;-75
2023/05/15 18:56:38;;;;;;;;;;;13.10;99.90;;;;;;8359742;28;20028;-74
2023/05/15 19:00:42;;;;;;;;;;;13.10;99.90;;;;;;8368599;28;20432;-74
2023/05/15 19:04:44;;;;;;;;;;;13.10;99.90;;;;;;8354231;28;20308;-74
2023/05/15 19:08:46;;;;;;;;;;;13.10;99.90;;;;;;8372036;28;19923;-74
2023/05/15 19:12:48;;;;;;;;;;;13.10;99.90;;;;;;8375458;28;19925;-74
2023/05/15 19:16:49;;;;;;;;;;;13.00;99.90;;;;;;8379037;28;19929;-74
2023/05/15 19:20:53;;;;;;;;;;;13.00;99.90;;;;;;8364155;28;19928;-74
2023/05/15 19:24:54;;;;;;;;;;;13.00;99.90;;;;;;8359333;28;20300;-74
2023/05/15 19:28:56;;;;;;;;;;;12.90;99.90;;;;;;8365736;28;19924;-74
2023/05/15 19:32:57;;;;;;;;;;;12.90;99.90;;;;;;8344169;28;20296;-74
2023/05/15 19:37:00;;;;;;;;;;;12.90;99.90;;;;;;8368452;28;19967;-74
2023/05/15 19:41:01;;;;;;;;;;;12.70;99.90;;;;;;8361478;28;19924;-74
2023/05/15 19:45:03;;;;;;;;;;;12.70;99.90;;;;;;8366663;28;19960;-74
2023/05/15 19:49:05;;;;;;;;;;;12.70;99.90;;;;;;8358553;28;19931;-74
2023/05/15 19:53:07;;;;;;;;;;;12.60;99.90;;;;;;8351739;28;19929;-74
2023/05/15 19:57:08;;;;;;;;;;;12.60;99.90;;;;;;8339317;28;19977;-74
2023/05/15 20:01:10;;;;;;;;;;;12.60;99.90;;;;;;8359478;28;19935;-74
2023/05/15 20:05:12;;;;;;;;;;;12.60;99.90;;;;;;8356253;28;19924;-74
2023/05/15 20:09:13;;;;;;;;;;;12.60;99.90;;;;;;8346869;28;19932;-74
2023/05/15 20:13:15;;;;;;;;;;;12.60;99.90;;;;;;8354795;28;19983;-74
2023/05/15 20:17:17;;;;;;;;;;;12.50;99.90;;;;;;8335182;28;19933;-74
2023/05/15 20:21:18;;;;;;;;;;;12.50;99.90;;;;;;8335578;28;20596;-74
2023/05/15 20:25:20;;;;;;;;;;;12.50;99.90;;;;;;8355858;28;19968;-74
2023/05/15 20:29:26;;;;;;;;;;;12.40;99.90;;;;;;8370633;28;20321;-74
2023/05/15 20:33:29;;;;;;;;;;;12.40;99.90;;;;;;8338895;28;19936;-74
2023/05/15 20:37:30;;;;;;;;;;;12.40;99.90;;;;;;8360170;28;19935;-75
2023/05/15 20:41:32;;;;;;;;;;;12.40;99.90;;;;;;8367332;28;19960;-75
2023/05/15 20:45:34;;;;;;;;;;;12.30;99.90;;;;;;8368437;28;19972;-75
2023/05/15 20:49:36;;;;;;;;;;;12.30;99.90;;;;;;8366521;28;19940;-74
2023/05/15 20:53:37;;;;;;;;;;;12.30;99.90;;;;;;8368926;28;20007;-74
2023/05/15 21:02:50;;;;;;;;;;;12.30;99.90;;;;;;8356822;28;19973;-74
2023/05/15 21:06:53;;;;;;;;;;;12.20;99.90;;;;;;8380425;28;19947;-74
2023/05/15 21:10:54;;;;;;;;;;;12.20;99.90;;;;;;8394909;28;19924;-74
2023/05/15 21:14:56;;;;;;;;;;;12.20;99.90;;;;;;8392220;28;19924;-74
2023/05/15 21:18:59;;;;;;;;;;;12.20;99.90;;;;;;8392443;28;20299;-74
2023/05/15 21:23:02;;;;;;;;;;;12.20;99.90;;;;;;8377015;28;19936;-74
2023/05/15 21:27:03;;;;;;;;;;;12.30;99.90;;;;;;8383144;28;19997;-74
2023/05/15 21:31:06;;;;;;;;;;;12.30;99.90;;;;;;8374991;28;19928;-74
2023/05/15 21:35:08;;;;;;;;;;;12.30;99.90;;;;;;8382887;28;20300;-75
2023/05/15 21:43:50;;;;;;;;;;;12.30;99.90;;;;;;8383742;28;20372;-74
2023/05/15 21:47:52;;;;;;;;;;;12.30;99.90;;;;;;8368389;28;19932;-74
2023/05/15 21:51:54;;;;;;;;;;;12.20;99.90;;;;;;8383045;28;19978;-74
2023/05/15 21:55:59;;;;;;;;;;;12.20;99.90;;;;;;8385584;28;19928;-74
2023/05/15 22:00:01;;;;;;;;;;;12.30;99.90;;;;;;8373096;28;19924;-74
2023/05/15 22:04:03;;;;;;;;;;;12.30;99.90;;;;;;8390164;28;19928;-74
2023/05/15 22:08:04;;;;;;;;;;;12.20;99.90;;;;;;8377940;28;22140;-74
2023/05/15 22:12:07;;;;;;;;;;;12.20;99.90;;;;;;8388823;28;20436;-74
2023/05/15 22:16:10;;;;;;;;;;;12.20;99.90;;;;;;8364713;28;20209;-74
2023/05/15 22:20:12;;;;;;;;;;;12.20;99.90;;;;;;8405148;28;19924;-74
2023/05/15 22:24:15;;;;;;;;;;;12.10;99.90;;;;;;8380131;28;20288;-74
2023/05/15 22:28:16;;;;;;;;;;;12.10;99.90;;;;;;8399224;28;20023;-75
2023/05/15 22:32:18;;;;;;;;;;;12.10;99.90;;;;;;8385537;28;20288;-74
2023/05/15 22:36:20;;;;;;;;;;;12.00;99.90;;;;;;8387881;28;19924;-74
2023/05/15 22:40:21;;;;;;;;;;;12.00;99.90;;;;;;8385904;28;19931;-74
2023/05/15 22:44:23;;;;;;;;;;;12.00;99.90;;;;;;8387051;28;19928;-74
2023/05/15 22:48:24;;;;;;;;;;;11.90;99.90;;;;;;8374372;28;19930;-74
2023/05/15 22:52:26;;;;;;;;;;;11.80;99.90;;;;;;8387191;28;19971;-74
2023/05/15 22:56:28;;;;;;;;;;;11.70;99.90;;;;;;8386016;28;19924;-73
2023/05/15 23:00:29;;;;;;;;;;;11.60;99.90;;;;;;8382511;28;19924;-73
2023/05/15 23:04:32;;;;;;;;;;;11.60;99.90;;;;;;8381970;28;19932;-74
2023/05/15 23:08:33;;;;;;;;;;;11.50;99.90;;;;;;8370542;28;19928;-74
2023/05/15 23:12:35;;;;;;;;;;;11.50;99.90;;;;;;8386678;28;20388;-73
2023/05/15 23:16:36;;;;;;;;;;;11.40;99.90;;;;;;8361698;28;19956;-74
2023/05/15 23:20:38;;;;;;;;;;;11.30;99.90;;;;;;8386828;28;19932;-73
2023/05/15 23:24:40;;;;;;;;;;;11.30;99.90;;;;;;8367689;28;20380;-73
2023/05/15 23:28:41;;;;;;;;;;;11.20;99.90;;;;;;8368742;28;19925;-73
2023/05/15 23:32:43;;;;;;;;;;;11.20;99.90;;;;;;8385319;28;19929;-73
2023/05/15 23:36:45;;;;;;;;;;;11.10;99.90;;;;;;8382705;28;19924;-73
2023/05/15 23:40:48;;;;;;;;;;;11.10;99.90;;;;;;8386750;28;19931;-74